Time;durP1;ratioP1;P1;durP2;ratioP2;P2;SDS_P1;SDS_P2;PMS_P1;PMS_P2;Temp;Humidity;BMP_temperature;BMP_pressure;BME280_temperature;BME280_humidity;BME280_pressure;Samples;Min_cycle;Max_cycle;Signal;HPM_P1;HPM_P2
2023/03/09 00:00:49;;;;;;;45.30;21.73;;;;;;;2.53;85.07;99032.17;1757015;81;21107;-66
2023/03/09 00:03:18;;;;;;;38.73;19.70;;;;;;;2.55;84.97;99030.64;1757028;82;21763;-66
2023/03/09 00:05:59;;;;;;;39.33;19.98;;;;;;;2.56;84.90;99021.51;1757114;82;21234;-65
2023/03/09 00:08:29;;;;;;;38.53;20.15;;;;;;;2.57;84.96;99012.38;1757217;81;21119;-65
2023/03/09 00:10:57;;;;;;;40.00;20.32;;;;;;;2.59;84.89;99004.09;1757140;81;21186;-66
2023/03/09 00:13:29;;;;;;;37.95;18.57;;;;;;;2.60;84.94;98993.60;1756930;80;21135;-67
2023/03/09 00:16:14;;;;;;;34.05;18.35;;;;;;;2.61;84.94;98981.28;1757144;82;21127;-66
2023/03/09 00:18:44;;;;;;;35.28;17.73;;;;;;;2.62;85.01;98970.80;1757027;82;21126;-66
2023/03/09 00:21:34;;;;;;;32.50;17.12;;;;;;;2.62;85.09;98965.39;1757136;81;21601;-66
2023/03/09 00:23:47;;;;;;;29.77;16.05;;;;;;;2.63;85.14;98952.72;1755135;81;21521;-67
2023/03/09 00:26:16;;;;;;;31.95;17.70;;;;;;;2.69;85.44;98948.77;1757223;82;21150;-65
2023/03/09 00:28:46;;;;;;;33.20;17.70;;;;;;;2.76;85.59;98944.31;1757201;81;21185;-65
2023/03/09 00:31:15;;;;;;;26.12;14.40;;;;;;;2.82;85.46;98935.45;1757181;82;21193;-65
2023/03/09 00:33:47;;;;;;;24.92;13.18;;;;;;;2.86;85.49;98921.89;1757107;82;21150;-66
2023/03/09 00:36:18;;;;;;;23.60;12.50;;;;;;;2.93;85.53;98919.29;1740996;82;21128;-66
2023/03/09 00:38:53;;;;;;;25.02;13.68;;;;;;;3.03;85.63;98905.48;1757045;81;21138;-66
2023/03/09 00:41:26;;;;;;;22.22;12.33;;;;;;;3.12;85.61;98896.25;1757270;81;21612;-64
2023/03/09 00:43:56;;;;;;;21.75;11.53;;;;;;;3.18;85.51;98886.87;1757122;82;21154;-65
2023/03/09 00:46:27;;;;;;;22.62;11.97;;;;;;;3.27;85.42;98878.17;1757067;81;21139;-65
2023/03/09 00:48:57;;;;;;;21.80;12.13;;;;;;;3.33;85.36;98873.36;1757070;81;21138;-66
2023/03/09 00:51:26;;;;;;;24.10;12.40;;;;;;;3.40;85.22;98853.97;1757159;82;21162;-66
2023/03/09 00:53:56;;;;;;;20.55;11.75;;;;;;;3.48;85.08;98861.14;1757580;80;21186;-64
2023/03/09 00:56:27;;;;;;;21.68;12.20;;;;;;;3.53;84.85;98856.00;1757084;81;21181;-66
2023/03/09 00:58:57;;;;;;;24.50;12.63;;;;;;;3.58;84.55;98855.42;1757177;82;21571;-65
2023/03/09 01:01:27;;;;;;;26.33;12.75;;;;;;;3.61;84.36;98850.47;1744815;82;21120;-65
2023/03/09 01:03:59;;;;;;;27.98;13.20;;;;;;;3.64;84.09;98848.73;1744070;81;21178;-66
2023/03/09 01:06:30;;;;;;;26.05;14.10;;;;;;;3.66;83.86;98845.83;1743849;81;21155;-66
2023/03/09 01:08:58;;;;;;;29.32;14.83;;;;;;;3.67;83.62;98842.09;1743860;81;21139;-66
2023/03/09 01:11:29;;;;;;;27.32;14.00;;;;;;;3.68;83.45;98835.64;1743826;82;21150;-68
2023/03/09 01:13:59;;;;;;;26.85;13.90;;;;;;;3.67;83.32;98825.33;1744008;82;21620;-65
2023/03/09 01:16:28;;;;;;;25.20;13.53;;;;;;;3.69;83.22;98833.26;1743884;82;21190;-66
2023/03/09 01:18:59;;;;;;;27.67;13.88;;;;;;;3.68;83.07;98834.29;1743773;81;21500;-66
2023/03/09 01:21:29;;;;;;;23.70;13.30;;;;;;;3.67;83.04;98840.73;1743987;81;21210;-67
2023/03/09 01:23:59;;;;;;;24.05;12.55;;;;;;;3.67;83.02;98836.67;1743756;81;21531;-65
2023/03/09 01:26:30;;;;;;;25.35;13.60;;;;;;;3.65;83.02;98834.16;1743676;81;21173;-66
2023/03/09 01:28:59;;;;;;;27.20;13.95;;;;;;;3.67;82.96;98829.91;1743841;82;21092;-66
2023/03/09 01:31:28;;;;;;;24.63;13.03;;;;;;;3.67;82.97;98824.48;1743753;81;21143;-67
2023/03/09 01:33:59;;;;;;;26.62;13.75;;;;;;;3.65;82.95;98816.55;1743792;82;21575;-65
2023/03/09 01:36:28;;;;;;;24.57;13.55;;;;;;;3.62;82.96;98810.17;1743941;82;21582;-66
2023/03/09 01:38:59;;;;;;;24.85;13.20;;;;;;;3.62;83.02;98799.85;1743736;81;21147;-66
2023/03/09 01:41:28;;;;;;;23.70;12.53;;;;;;;3.61;83.12;98792.77;1744103;82;21187;-67
2023/03/09 01:43:58;;;;;;;21.97;11.80;;;;;;;3.61;83.18;98775.16;1743791;81;21166;-65
2023/03/09 01:46:39;;;;;;;23.98;13.40;;;;;;;3.61;83.24;98775.16;1743714;81;21147;-66
2023/03/09 01:49:20;;;;;;;25.08;12.23;;;;;;;3.61;83.35;98779.22;1733371;82;21112;-66
2023/03/09 01:52:16;;;;;;;22.93;12.73;;;;;;;3.60;83.42;98782.96;1743803;81;21100;-66
2023/03/09 01:54:58;;;;;;;22.50;12.47;;;;;;;3.60;83.51;98781.09;1733755;82;21182;-66
2023/03/09 01:57:47;;;;;;;22.52;12.47;;;;;;;3.61;83.55;98791.41;1743674;81;21158;-72
2023/03/09 02:00:20;;;;;;;25.97;12.60;;;;;;;3.61;83.54;98787.34;1731385;82;21124;-66
2023/03/09 02:03:08;;;;;;;22.00;12.03;;;;;;;3.60;83.54;98783.80;1743748;81;21103;-66
2023/03/09 02:06:01;;;;;;;22.75;12.45;;;;;;;3.58;83.60;98781.80;1743844;82;21548;-65
2023/03/09 02:08:31;;;;;;;21.48;11.53;;;;;;;3.58;83.69;98775.03;1699490;81;21115;-65
2023/03/09 02:11:06;;;;;;;23.70;12.25;;;;;;;3.57;83.81;98777.41;1743967;81;21132;-66
2023/03/09 02:13:44;;;;;;;21.37;11.57;;;;;;;3.58;83.93;98783.16;1744146;81;21178;-65
2023/03/09 02:16:15;;;;;;;22.30;11.97;;;;;;;3.58;84.04;98779.61;1743938;81;21539;-66
2023/03/09 02:18:45;;;;;;;20.23;11.75;;;;;;;3.60;84.13;98778.89;1743925;81;21144;-66
2023/03/09 02:21:42;;;;;;;20.90;11.70;;;;;;;3.63;84.20;98777.16;1744033;81;21111;-66
2023/03/09 02:24:39;;;;;;;19.62;10.50;;;;;;;3.65;84.20;98779.16;1743912;82;21095;-66
2023/03/09 02:27:19;;;;;;;18.45;10.32;;;;;;;3.68;84.24;98783.67;1744097;82;21123;-65
2023/03/09 02:29:49;;;;;;;16.70;10.10;;;;;;;3.72;84.23;98786.31;1743909;81;21119;-66
2023/03/09 02:32:19;;;;;;;19.50;10.68;;;;;;;3.76;84.16;98786.25;1743843;81;21171;-65
2023/03/09 02:34:49;;;;;;;17.98;10.68;;;;;;;3.80;84.15;98774.51;1743828;82;21092;-65
2023/03/09 02:37:32;;;;;;;18.67;9.83;;;;;;;3.82;84.06;98768.38;1743781;81;21135;-65
2023/03/09 02:40:18;;;;;;;18.37;9.43;;;;;;;3.87;83.94;98782.70;1744073;81;21151;-66
2023/03/09 02:42:47;;;;;;;18.42;9.48;;;;;;;3.91;83.81;98776.73;1744120;81;21091;-65
2023/03/09 02:45:17;;;;;;;17.92;10.15;;;;;;;3.96;83.72;98779.69;1744016;81;21120;-65
2023/03/09 02:47:47;;;;;;;18.77;9.28;;;;;;;4.01;83.56;98777.23;1743725;81;21186;-66
2023/03/09 02:50:17;;;;;;;18.23;9.53;;;;;;;4.04;83.37;98779.55;1743842;82;21119;-66
2023/03/09 02:52:46;;;;;;;18.73;9.70;;;;;;;4.07;83.23;98773.73;1743875;82;21166;-66
2023/03/09 02:55:15;;;;;;;18.37;9.33;;;;;;;4.10;83.11;98773.86;1743974;81;21198;-67
2023/03/09 02:57:45;;;;;;;17.25;9.43;;;;;;;4.13;82.99;98766.69;1743879;81;21826;-66
2023/03/09 03:00:17;;;;;;;17.90;8.95;;;;;;;4.16;82.84;98761.40;1743846;81;21211;-66
2023/03/09 03:02:46;;;;;;;17.17;8.93;;;;;;;4.18;82.65;98772.36;1743972;82;21614;-67
2023/03/09 03:05:17;;;;;;;15.15;8.45;;;;;;;4.22;82.50;98774.16;1744018;82;21131;-65
2023/03/09 03:07:46;;;;;;;16.80;8.35;;;;;;;4.26;82.40;98782.22;1743896;82;21154;-66
2023/03/09 03:10:19;;;;;;;14.50;8.35;;;;;;;4.27;82.30;98779.83;1733979;82;21111;-66
2023/03/09 03:12:48;;;;;;;17.35;9.05;;;;;;;4.31;82.19;98779.23;1743822;81;21167;-66
2023/03/09 03:15:18;;;;;;;14.20;8.23;;;;;;;4.34;82.14;98775.30;1744055;81;21158;-65
2023/03/09 03:17:49;;;;;;;15.60;8.35;;;;;;;4.37;82.03;98773.03;1743784;82;21544;-65
2023/03/09 03:20:20;;;;;;;15.83;8.50;;;;;;;4.41;81.81;98766.69;1743785;82;21591;-66
2023/03/09 03:22:49;;;;;;;15.58;8.20;;;;;;;4.44;81.66;98778.49;1743826;82;21108;-65
2023/03/09 03:25:20;;;;;;;14.28;7.42;;;;;;;4.46;81.51;98779.97;1743907;81;21115;-66
2023/03/09 03:27:52;;;;;;;15.72;8.30;;;;;;;4.48;81.33;98775.70;1744131;82;21115;-65
2023/03/09 03:30:23;;;;;;;15.50;8.38;;;;;;;4.49;81.24;98773.83;1743972;81;21178;-65
2023/03/09 03:32:54;;;;;;;15.03;8.38;;;;;;;4.50;81.23;98777.70;1733792;82;21115;-66
2023/03/09 03:35:26;;;;;;;14.30;8.05;;;;;;;4.53;81.22;98777.82;1743618;81;21151;-65
2023/03/09 03:37:55;;;;;;;15.18;8.45;;;;;;;4.54;81.19;98784.40;1716505;82;21147;-65
2023/03/09 03:40:26;;;;;;;14.40;8.15;;;;;;;4.54;81.18;98774.91;1744003;82;21132;-66
2023/03/09 03:42:58;;;;;;;15.60;8.10;;;;;;;4.56;81.21;98770.67;1743994;81;21178;-65
2023/03/09 03:45:30;;;;;;;16.52;8.18;;;;;;;4.56;81.23;98767.44;1733464;82;21088;-64
2023/03/09 03:48:01;;;;;;;11.48;6.90;;;;;;;4.58;81.16;98757.75;1743718;81;21555;-66
2023/03/09 03:50:35;;;;;;;15.00;7.80;;;;;;;4.58;81.13;98759.95;1743793;81;21087;-66
2023/03/09 03:53:05;;;;;;;12.98;7.55;;;;;;;4.59;81.15;98762.14;1743829;81;21154;-66
2023/03/09 03:55:36;;;;;;;13.95;7.33;;;;;;;4.61;81.12;98764.97;1743800;82;21155;-66
2023/03/09 03:58:06;;;;;;;14.18;7.67;;;;;;;4.62;81.13;98756.31;1743810;81;21162;-65
2023/03/09 04:00:36;;;;;;;15.23;7.90;;;;;;;4.63;81.06;98746.62;1743832;82;21120;-65
2023/03/09 04:03:07;;;;;;;14.83;8.05;;;;;;;4.65;81.02;98751.33;1744214;82;21175;-65
2023/03/09 04:05:39;;;;;;;15.10;8.05;;;;;;;4.67;80.93;98748.41;1743821;81;21112;-64
2023/03/09 04:08:08;;;;;;;13.98;7.60;;;;;;;4.67;80.85;98745.18;1743838;81;21142;-65
2023/03/09 04:10:41;;;;;;;15.85;7.90;;;;;;;4.67;80.81;98739.76;1716517;82;21155;-66
2023/03/09 04:13:13;;;;;;;14.87;7.80;;;;;;;4.68;80.75;98735.17;1743822;82;21087;-64
2023/03/09 04:15:42;;;;;;;15.45;7.03;;;;;;;4.68;80.69;98727.87;1743794;82;21123;-66
2023/03/09 04:18:15;;;;;;;12.93;7.60;;;;;;;4.69;80.65;98720.56;1743931;81;21115;-65
2023/03/09 04:20:46;;;;;;;14.10;7.65;;;;;;;4.68;80.61;98715.66;1743801;82;21596;-65
2023/03/09 04:23:16;;;;;;;12.85;7.17;;;;;;;4.70;80.62;98705.97;1743827;81;21155;-66
2023/03/09 04:25:58;;;;;;;14.40;7.58;;;;;;;4.70;80.53;98686.98;1743609;81;21442;-64
2023/03/09 04:28:29;;;;;;;11.88;6.90;;;;;;;4.71;80.44;98692.72;1742815;82;21106;-67
2023/03/09 04:31:00;;;;;;;13.98;7.40;;;;;;;4.71;80.37;98689.48;1743782;82;21151;-65
2023/03/09 04:33:31;;;;;;;18.48;8.50;;;;;;;4.72;80.32;98703.38;1743735;81;21123;-65
2023/03/09 04:36:01;;;;;;;13.75;8.40;;;;;;;4.72;80.31;98698.47;1743741;82;21115;-66
2023/03/09 04:38:33;;;;;;;14.85;7.72;;;;;;;4.71;80.31;98686.78;1743942;81;21544;-67
2023/03/09 04:41:06;;;;;;;14.25;7.78;;;;;;;4.72;80.32;98693.88;1733470;82;21132;-65
2023/03/09 04:43:36;;;;;;;14.07;7.87;;;;;;;4.73;80.33;98682.50;1744049;81;21168;-65
2023/03/09 04:46:08;;;;;;;12.55;7.08;;;;;;;4.75;80.32;98681.78;1743767;82;21535;-67
2023/03/09 04:48:39;;;;;;;14.25;7.50;;;;;;;4.77;80.24;98669.69;1743802;81;21128;-66
2023/03/09 04:51:08;;;;;;;13.18;6.92;;;;;;;4.78;80.15;98665.09;1744135;81;21153;-65
2023/03/09 04:53:39;;;;;;;14.98;7.33;;;;;;;4.81;80.06;98657.07;1744054;82;21116;-66
2023/03/09 04:56:09;;;;;;;12.73;7.20;;;;;;;4.80;80.01;98646.73;1743742;82;21596;-66
2023/03/09 04:58:40;;;;;;;15.20;7.40;;;;;;;4.83;79.98;98641.42;1743632;81;21123;-67
2023/03/09 05:01:10;;;;;;;13.95;8.23;;;;;;;4.84;79.89;98629.53;1712166;83;21561;-66
2023/03/09 05:03:40;;;;;;;15.50;7.40;;;;;;;4.86;79.92;98627.45;1717886;83;21110;-65
2023/03/09 05:06:10;;;;;;;12.90;7.42;;;;;;;4.87;79.97;98621.82;1717807;82;21126;-64
2023/03/09 05:08:39;;;;;;;15.28;8.18;;;;;;;4.89;79.99;98614.31;1717889;83;21526;-67
2023/03/09 05:11:10;;;;;;;12.68;7.30;;;;;;;4.92;80.00;98606.28;1717798;83;21118;-65
2023/03/09 05:13:43;;;;;;;11.88;7.20;;;;;;;4.93;79.94;98590.31;1717791;82;21110;-65
2023/03/09 05:16:15;;;;;;;13.70;8.15;;;;;;;4.95;79.92;98597.73;1718022;83;21113;-64
2023/03/09 05:18:49;;;;;;;15.23;8.83;;;;;;;4.96;79.90;98588.02;1717727;82;21163;-65
2023/03/09 05:21:21;;;;;;;16.52;7.70;;;;;;;4.98;79.88;98590.53;1717745;83;21118;-66
2023/03/09 05:23:52;;;;;;;14.25;8.25;;;;;;;4.99;79.94;98593.56;1717699;83;21543;-67
2023/03/09 05:26:22;;;;;;;14.90;8.70;;;;;;;5.02;79.97;98590.44;1717882;83;21122;-65
2023/03/09 05:28:54;;;;;;;17.12;9.05;;;;;;;5.02;79.97;98582.30;1717862;83;21118;-66
2023/03/09 05:31:25;;;;;;;16.07;9.45;;;;;;;5.02;80.03;98577.70;1717707;83;21130;-65
2023/03/09 05:33:54;;;;;;;15.85;8.90;;;;;;;5.04;80.12;98583.76;1717709;83;21110;-65
2023/03/09 05:36:25;;;;;;;16.57;8.93;;;;;;;5.07;80.13;98583.34;1717690;83;21660;-66
2023/03/09 05:38:57;;;;;;;14.55;8.40;;;;;;;5.10;80.15;98573.95;1717815;82;21222;-65
2023/03/09 05:41:28;;;;;;;13.88;7.95;;;;;;;5.13;80.19;98575.41;1717932;82;21586;-66
2023/03/09 05:43:59;;;;;;;15.48;8.53;;;;;;;5.14;80.21;98575.20;1717786;83;21132;-64
2023/03/09 05:46:30;;;;;;;15.72;7.83;;;;;;;5.18;80.22;98577.82;1718215;83;21190;-66
2023/03/09 05:49:00;;;;;;;13.30;7.35;;;;;;;5.23;80.24;98580.78;1717921;83;21639;-65
2023/03/09 05:51:30;;;;;;;14.68;8.08;;;;;;;5.26;80.20;98579.53;1717871;83;21542;-65
2023/03/09 05:54:00;;;;;;;13.95;7.97;;;;;;;5.28;80.26;98575.56;1718042;83;21150;-65
2023/03/09 05:56:30;;;;;;;13.58;8.10;;;;;;;5.31;80.27;98576.50;1713253;82;21126;-65
2023/03/09 05:59:02;;;;;;;13.90;8.43;;;;;;;5.34;80.25;98567.94;1717910;83;21119;-64
2023/03/09 06:01:32;;;;;;;12.90;7.90;;;;;;;5.39;80.23;98569.50;1728171;81;21118;-65
2023/03/09 06:04:06;;;;;;;12.73;6.70;;;;;;;5.45;80.21;98566.47;1752858;81;21154;-65
2023/03/09 06:06:41;;;;;;;12.78;7.70;;;;;;;5.50;80.19;98570.75;1757251;81;21104;-65
2023/03/09 06:09:09;;;;;;;14.25;7.30;;;;;;;5.57;80.09;98574.81;1724700;82;21559;-65
2023/03/09 06:11:41;;;;;;;12.10;7.75;;;;;;;5.63;80.08;98573.97;1757139;81;21123;-65
2023/03/09 06:14:12;;;;;;;12.53;7.45;;;;;;;5.69;80.10;98567.70;1757325;81;21543;-65
2023/03/09 06:16:42;;;;;;;12.60;7.12;;;;;;;5.75;80.03;98564.12;1757422;80;21122;-64
2023/03/09 06:19:15;;;;;;;12.43;7.08;;;;;;;5.82;79.92;98569.55;1757224;81;21605;-66
2023/03/09 06:21:44;;;;;;;12.63;7.37;;;;;;;5.88;79.73;98568.73;1757130;81;21216;-64
2023/03/09 06:24:15;;;;;;;9.65;6.20;;;;;;;5.94;79.63;98566.03;1757285;82;21127;-65
2023/03/09 06:26:44;;;;;;;10.95;6.15;;;;;;;6.01;79.48;98566.02;1757389;81;21174;-65
2023/03/09 06:29:15;;;;;;;14.73;7.08;;;;;;;6.12;79.32;98567.23;1757259;82;21151;-65
2023/03/09 06:31:46;;;;;;;13.35;7.40;;;;;;;6.20;79.13;98572.44;1757311;81;21202;-66
2023/03/09 06:34:15;;;;;;;17.67;8.13;;;;;;;6.28;78.90;98561.32;1757199;82;21111;-66
2023/03/09 06:36:46;;;;;;;16.50;8.05;;;;;;;6.35;78.69;98564.33;1757213;81;21150;-67
2023/03/09 06:39:17;;;;;;;16.25;7.60;;;;;;;6.43;78.41;98565.12;1757429;82;21150;-66
2023/03/09 06:41:46;;;;;;;14.70;7.08;;;;;;;6.51;78.07;98547.23;1757148;81;21631;-65
2023/03/09 06:44:27;;;;;;;14.28;6.85;;;;;;;6.59;77.78;98553.25;1757318;81;21146;-66
2023/03/09 06:46:57;;;;;;;12.65;6.78;;;;;;;6.66;77.53;98559.49;1757037;82;21620;-66
2023/03/09 06:49:29;;;;;;;11.12;6.75;;;;;;;6.75;77.19;98560.59;1757058;81;21143;-67
2023/03/09 06:52:01;;;;;;;12.85;6.85;;;;;;;6.84;76.85;98556.56;1757267;81;21111;-65
2023/03/09 06:54:33;;;;;;;13.45;7.50;;;;;;;6.93;76.58;98556.61;1757114;82;21586;-66
2023/03/09 06:57:04;;;;;;;13.30;7.20;;;;;;;7.04;76.41;98553.19;1756374;81;21119;-65
2023/03/09 06:59:34;;;;;;;11.15;6.50;;;;;;;7.12;75.96;98546.63;1757131;81;21146;-64
2023/03/09 07:02:05;;;;;;;11.48;6.58;;;;;;;7.21;75.34;98542.09;1752636;82;21177;-65
2023/03/09 07:04:36;;;;;;;11.70;6.75;;;;;;;7.30;74.99;98544.84;1743945;81;21151;-67
2023/03/09 07:07:09;;;;;;;12.23;7.37;;;;;;;7.37;74.72;98535.78;1743860;81;21146;-68
2023/03/09 07:09:40;;;;;;;11.28;7.25;;;;;;;7.43;74.32;98538.97;1743893;81;21095;-66
2023/03/09 07:12:13;;;;;;;12.68;7.37;;;;;;;7.48;74.04;98545.95;1744038;81;21127;-65
2023/03/09 07:14:43;;;;;;;11.88;6.90;;;;;;;7.52;73.86;98533.02;1744104;81;21139;-67
2023/03/09 07:17:14;;;;;;;13.62;6.78;;;;;;;7.58;73.58;98532.65;1743864;81;21111;-65
2023/03/09 07:19:44;;;;;;;16.85;7.20;;;;;;;7.61;73.48;98528.95;1743910;82;21112;-65
2023/03/09 07:22:14;;;;;;;11.75;6.87;;;;;;;7.67;73.32;98534.03;1744029;81;21535;-66
2023/03/09 07:24:44;;;;;;;14.23;7.25;;;;;;;7.72;72.95;98528.73;1743732;81;21159;-66
2023/03/09 07:27:14;;;;;;;19.52;7.50;;;;;;;7.78;72.82;98515.56;1743808;82;21159;-65
2023/03/09 07:29:44;;;;;;;12.40;7.17;;;;;;;7.84;72.70;98523.40;1743989;82;21135;-67
2023/03/09 07:32:14;;;;;;;16.87;7.35;;;;;;;7.90;72.70;98513.78;1743867;81;21495;-67
2023/03/09 07:34:45;;;;;;;14.75;8.00;;;;;;;8.00;72.61;98519.23;1743998;82;21205;-66
2023/03/09 07:37:15;;;;;;;12.98;7.45;;;;;;;8.09;72.48;98520.60;1743673;82;21139;-68
2023/03/09 07:39:46;;;;;;;17.57;8.28;;;;;;;8.19;71.98;98519.53;1744033;81;21103;-66
2023/03/09 07:42:16;;;;;;;17.20;7.67;;;;;;;8.30;71.58;98520.66;1744042;82;21159;-67
2023/03/09 07:44:49;;;;;;;15.03;7.83;;;;;;;8.39;71.35;98515.22;1740028;82;21231;-68
2023/03/09 07:47:19;;;;;;;15.90;7.37;;;;;;;8.48;70.85;98522.06;1743864;82;21127;-66
2023/03/09 07:49:52;;;;;;;13.75;6.90;;;;;;;8.58;70.51;98515.52;1743845;81;21124;-66
2023/03/09 07:52:30;;;;;;;16.57;7.55;;;;;;;8.68;69.93;98519.89;1744073;81;21099;-67
2023/03/09 07:54:59;;;;;;;15.25;8.00;;;;;;;8.78;69.51;98517.97;1744271;81;21159;-66
2023/03/09 07:57:31;;;;;;;17.75;6.97;;;;;;;8.88;69.24;98511.41;1744053;82;21496;-68
2023/03/09 08:00:01;;;;;;;18.00;7.75;;;;;;;8.96;68.63;98520.63;1744019;82;21127;-67
2023/03/09 08:02:33;;;;;;;21.77;8.88;;;;;;;9.00;68.37;98521.84;1743545;81;21365;-65
2023/03/09 08:05:06;;;;;;;13.90;7.37;;;;;;;9.04;68.14;98529.86;1744243;82;21519;-67
2023/03/09 08:07:37;;;;;;;15.13;8.10;;;;;;;9.05;67.92;98523.33;1733813;82;21582;-68
2023/03/09 08:10:08;;;;;;;20.32;7.35;;;;;;;9.05;67.83;98519.23;1744060;81;21163;-67
2023/03/09 08:12:38;;;;;;;12.47;6.65;;;;;;;9.06;67.83;98527.73;1743915;82;21147;-65
2023/03/09 08:15:08;;;;;;;15.28;6.83;;;;;;;9.07;67.54;98519.83;1743817;81;21123;-68
2023/03/09 08:17:37;;;;;;;15.50;7.10;;;;;;;9.13;67.66;98513.46;1743909;81;21175;-68
2023/03/09 08:20:11;;;;;;;15.80;7.42;;;;;;;9.27;67.87;98515.45;1743919;82;21155;-65
2023/03/09 08:22:41;;;;;;;17.92;7.90;;;;;;;9.51;67.75;98513.03;1733948;82;21119;-68
2023/03/09 08:25:11;;;;;;;21.95;7.92;;;;;;;9.90;66.98;98503.00;1743822;81;21142;-65
2023/03/09 08:27:45;;;;;;;12.85;6.95;;;;;;;10.23;66.23;98503.20;1744049;82;21103;-66
2023/03/09 08:30:16;;;;;;;13.38;6.15;;;;;;;10.66;65.23;98499.16;1743930;82;21566;-68
2023/03/09 08:32:47;;;;;;;12.55;6.62;;;;;;;11.15;63.23;98506.38;1743868;82;21166;-68
2023/03/09 08:35:20;;;;;;;16.77;6.35;;;;;;;11.50;61.86;98498.73;1743876;82;21566;-67
2023/03/09 08:37:51;;;;;;;11.48;5.97;;;;;;;11.91;60.30;98492.55;1743813;81;21147;-67
2023/03/09 08:40:20;;;;;;;13.98;6.50;;;;;;;12.24;58.78;98488.32;1743860;81;21155;-66
2023/03/09 08:42:50;;;;;;;9.73;5.92;;;;;;;12.49;58.46;98491.95;1743977;82;21123;-67
2023/03/09 08:45:20;;;;;;;11.93;6.42;;;;;;;12.64;57.48;98485.80;1743823;82;21609;-65
2023/03/09 08:47:49;;;;;;;25.68;7.55;;;;;;;12.67;57.10;98494.36;1743694;81;21120;-64
2023/03/09 08:50:19;;;;;;;24.10;7.17;;;;;;;12.59;56.17;98496.19;1743811;81;21091;-66
2023/03/09 08:52:49;;;;;;;15.55;7.40;;;;;;;12.53;56.60;98507.37;1743813;81;21148;-64
2023/03/09 08:55:21;;;;;;;12.00;6.15;;;;;;;12.61;57.06;98494.56;1760269;79;21216;-69
2023/03/09 08:57:51;;;;;;;11.70;5.87;;;;;;;12.73;56.42;98500.73;1746782;81;21206;-66
2023/03/09 09:00:23;;;;;;;18.10;6.60;;;;;;;12.77;55.92;98496.38;1757799;81;21135;-65
2023/03/09 09:02:52;;;;;;;10.48;4.90;;;;;;;12.79;56.01;98496.95;1779371;80;21512;-65
2023/03/09 09:05:23;;;;;;;18.65;5.55;;;;;;;12.86;55.79;98489.33;1764199;80;21111;-65
2023/03/09 09:07:53;;;;;;;13.83;5.30;;;;;;;12.92;55.38;98492.42;1756887;80;21603;-64
2023/03/09 09:10:23;;;;;;;14.98;5.10;;;;;;;12.93;55.06;98495.45;1756926;82;21195;-67
2023/03/09 09:12:56;;;;;;;8.85;4.58;;;;;;;12.83;54.68;98491.23;1742616;79;21102;-66
2023/03/09 09:15:26;;;;;;;13.00;5.50;;;;;;;12.77;54.92;98505.17;1770814;80;21106;-66
2023/03/09 09:17:59;;;;;;;14.05;5.50;;;;;;;12.68;55.29;98500.69;1787900;80;21114;-65
2023/03/09 09:20:31;;;;;;;9.63;5.50;;;;;;;12.64;55.37;98498.16;1788008;80;21136;-64
2023/03/09 09:23:03;;;;;;;12.70;4.95;;;;;;;12.63;55.67;98497.88;1788170;80;21127;-66
2023/03/09 09:25:32;;;;;;;7.30;4.22;;;;;;;12.63;55.73;98497.88;1746557;80;21118;-67
2023/03/09 09:28:05;;;;;;;10.98;4.33;;;;;;;12.67;55.89;98500.39;1712119;82;21116;-64
2023/03/09 09:30:36;;;;;;;8.58;4.12;;;;;;;12.64;55.13;98496.79;1730326;82;21131;-64
2023/03/09 09:33:06;;;;;;;7.30;4.28;;;;;;;12.55;55.13;98514.81;1726435;83;21119;-63
2023/03/09 09:35:35;;;;;;;7.83;4.30;;;;;;;12.44;55.14;98514.41;1726400;83;21122;-64
2023/03/09 09:38:06;;;;;;;10.78;5.25;;;;;;;12.32;55.17;98517.25;1726173;82;21213;-64
2023/03/09 09:40:37;;;;;;;14.03;7.30;;;;;;;12.19;55.65;98521.75;1726377;83;22238;-65
2023/03/09 09:43:08;;;;;;;13.13;6.58;;;;;;;12.08;55.89;98518.58;1726502;83;21212;-63
2023/03/09 09:45:43;;;;;;;13.10;6.20;;;;;;;11.99;56.38;98515.44;1742351;80;21090;-74
2023/03/09 09:48:17;;;;;;;11.97;5.28;;;;;;;11.90;56.51;98516.41;1788708;80;21105;-67
2023/03/09 09:51:10;;;;;;;9.65;4.28;;;;;;;11.83;56.83;98510.81;1788619;79;21173;-68
2023/03/09 09:54:05;;;;;;;9.23;4.28;;;;;;;11.79;58.41;98505.54;1788813;80;21153;-70
2023/03/09 09:56:51;;;;;;;7.42;4.12;;;;;;;11.84;58.76;98511.93;1788694;80;21141;-69
2023/03/09 09:59:44;;;;;;;11.78;4.75;;;;;;;11.95;59.52;98506.87;1788622;80;21185;-66
2023/03/09 10:02:31;;;;;;;8.20;4.90;;;;;;;12.11;60.05;98501.59;1788671;80;21106;-66
2023/03/09 10:05:07;;;;;;;9.65;4.65;;;;;;;12.28;59.96;98499.08;1765183;79;21107;-71
2023/03/09 10:07:38;;;;;;;13.37;4.90;;;;;;;12.44;58.73;98495.18;1719407;80;21170;-68
2023/03/09 10:10:20;;;;;;;12.75;5.33;;;;;;;12.55;58.17;98487.34;1757027;82;21782;-68
2023/03/09 10:12:50;;;;;;;8.58;4.72;;;;;;;12.62;58.39;98481.11;1757052;81;21143;-65
2023/03/09 10:15:29;;;;;;;10.55;4.83;;;;;;;12.72;58.17;98476.27;1757216;82;21126;-68
2023/03/09 10:18:32;;;;;;;11.48;5.05;;;;;;;12.80;57.55;98479.38;1757210;82;21131;-69
2023/03/09 10:21:06;;;;;;;8.70;4.40;;;;;;;12.91;57.47;98470.69;1599826;89;21166;-65
2023/03/09 10:23:38;;;;;;;10.75;4.87;;;;;;;13.02;56.60;98469.73;1580138;90;21182;-68
2023/03/09 10:26:24;;;;;;;11.25;4.50;;;;;;;13.07;55.56;98466.20;1558609;90;21656;-69
2023/03/09 10:29:21;;;;;;;9.00;4.40;;;;;;;13.07;55.14;98459.33;1600022;89;21347;-69
2023/03/09 10:32:04;;;;;;;7.97;4.53;;;;;;;13.10;55.63;98458.80;1636113;86;21736;-67
2023/03/09 10:34:37;;;;;;;9.63;4.80;;;;;;;13.17;55.73;98447.06;1636171;88;21294;-69
2023/03/09 10:37:14;;;;;;;6.17;4.10;;;;;;;13.25;55.13;98445.20;1636390;88;21143;-66
2023/03/09 10:39:47;;;;;;;13.22;4.50;;;;;;;13.28;54.32;98443.31;1636248;88;21163;-69
2023/03/09 10:42:24;;;;;;;14.33;4.87;;;;;;;13.27;54.58;98441.65;1636277;88;21199;-70
2023/03/09 10:45:12;;;;;;;7.05;3.75;;;;;;;13.27;54.70;98441.65;1636224;86;21202;-67
2023/03/09 10:47:55;;;;;;;9.73;5.33;;;;;;;13.28;54.07;98441.39;1636143;88;21163;-68
2023/03/09 10:50:29;;;;;;;11.33;5.22;;;;;;;13.27;54.16;98453.48;1635824;86;21158;-71
2023/03/09 10:53:00;;;;;;;9.53;4.60;;;;;;;13.28;54.39;98446.89;1636029;88;21680;-69
2023/03/09 10:55:37;;;;;;;9.43;4.08;;;;;;;13.34;53.69;98453.25;1615782;86;21163;-69
2023/03/09 10:58:23;;;;;;;6.10;3.55;;;;;;;13.33;53.60;98444.72;1656092;86;21805;-66
2023/03/09 11:01:02;;;;;;;8.45;4.17;;;;;;;13.32;53.89;98447.19;1668851;86;21173;-68
2023/03/09 11:03:41;;;;;;;8.95;3.83;;;;;;;13.36;54.16;98440.06;1668387;85;21185;-69
2023/03/09 11:06:27;;;;;;;7.10;4.08;;;;;;;13.38;54.12;98431.55;1666035;86;21150;-68
2023/03/09 11:09:02;;;;;;;6.13;4.23;;;;;;;13.37;54.04;98432.10;1666139;86;21826;-69
2023/03/09 11:11:34;;;;;;;6.10;3.80;;;;;;;13.35;54.16;98427.95;1647666;86;21609;-68
2023/03/09 11:14:03;;;;;;;14.65;4.85;;;;;;;13.33;54.30;98415.30;1665849;86;21682;-68
2023/03/09 11:16:37;;;;;;;8.20;4.00;;;;;;;13.35;54.50;98420.53;1665991;86;21193;-68
2023/03/09 11:19:16;;;;;;;10.65;4.00;;;;;;;13.41;54.12;98431.02;1665946;86;21179;-66
2023/03/09 11:21:59;;;;;;;;;;;;;;;13.46;54.42;98416.76;1666065;86;21601;-68
2023/03/09 11:24:44;;;;;;;8.85;4.55;;;;;;;13.52;54.16;98421.20;1665705;86;20219;-67
2023/03/09 11:27:28;;;;;;;8.28;4.10;;;;;;;13.54;53.71;98410.76;1666031;86;21204;-66
2023/03/09 11:30:16;;;;;;;10.18;4.20;;;;;;;13.49;53.17;98410.73;1665679;86;21170;-68
2023/03/09 11:32:49;;;;;;;9.38;4.20;;;;;;;13.43;53.06;98406.28;1621359;86;21209;-69
2023/03/09 11:35:20;;;;;;;9.25;4.72;;;;;;;13.40;52.87;98402.69;1666447;86;21188;-67
2023/03/09 11:38:03;;;;;;;9.23;4.37;;;;;;;13.38;53.02;98389.75;1665706;86;21616;-67
2023/03/09 11:40:33;;;;;;;8.88;5.17;;;;;;;13.40;52.99;98396.36;1666218;85;21125;-67
2023/03/09 11:43:15;;;;;;;8.28;4.97;;;;;;;13.41;53.09;98396.09;1656816;86;21636;-66
2023/03/09 11:45:48;;;;;;;8.83;4.40;;;;;;;13.42;53.12;98383.17;1663780;86;21214;-67
2023/03/09 11:48:35;;;;;;;9.08;4.75;;;;;;;13.45;53.19;98375.22;1666370;86;21209;-67
2023/03/09 11:51:16;;;;;;;9.63;4.10;;;;;;;13.51;53.39;98376.07;1666495;86;21192;-66
2023/03/09 11:54:04;;;;;;;7.20;3.90;;;;;;;13.54;53.36;98373.62;1666273;85;21600;-65
2023/03/09 11:56:37;;;;;;;9.10;4.25;;;;;;;13.59;53.36;98372.81;1666384;85;21146;-65
2023/03/09 11:59:30;;;;;;;10.53;4.17;;;;;;;13.63;52.87;98363.76;1666276;86;21684;-65